sensor_id;sensor_type;location;lat;lon;timestamp;P1;durP1;ratioP1;P2;durP2;ratioP2
35689;SDS011;26977;44.830;-0.674;2022-10-16T00:01:38;9.65;;;4.07;;
35689;SDS011;26977;44.830;-0.674;2022-10-16T00:04:04;9.70;;;4.68;;
35689;SDS011;26977;44.830;-0.674;2022-10-16T00:06:30;7.82;;;4.97;;
35689;SDS011;26977;44.830;-0.674;2022-10-16T00:08:56;7.30;;;5.13;;
35689;SDS011;26977;44.830;-0.674;2022-10-16T00:11:23;9.13;;;4.60;;
35689;SDS011;26977;44.830;-0.674;2022-10-16T00:13:54;11.50;;;4.85;;
35689;SDS011;26977;44.830;-0.674;2022-10-16T00:16:23;10.70;;;4.82;;
35689;SDS011;26977;44.830;-0.674;2022-10-16T00:18:49;10.32;;;4.80;;
35689;SDS011;26977;44.830;-0.674;2022-10-16T00:21:16;10.65;;;4.60;;
35689;SDS011;26977;44.830;-0.674;2022-10-16T00:23:44;10.20;;;4.65;;
35689;SDS011;26977;44.830;-0.674;2022-10-16T00:26:13;8.52;;;4.18;;
35689;SDS011;26977;44.830;-0.674;2022-10-16T00:28:40;7.75;;;4.95;;
35689;SDS011;26977;44.830;-0.674;2022-10-16T00:31:07;12.48;;;4.78;;
35689;SDS011;26977;44.830;-0.674;2022-10-16T00:33:35;8.35;;;4.53;;
35689;SDS011;26977;44.830;-0.674;2022-10-16T00:36:02;6.10;;;4.53;;
35689;SDS011;26977;44.830;-0.674;2022-10-16T00:38:29;6.47;;;4.47;;
35689;SDS011;26977;44.830;-0.674;2022-10-16T00:40:54;7.13;;;4.88;;
35689;SDS011;26977;44.830;-0.674;2022-10-16T00:46:27;13.95;;;6.05;;
35689;SDS011;26977;44.830;-0.674;2022-10-16T00:51:54;9.00;;;5.05;;
35689;SDS011;26977;44.830;-0.674;2022-10-16T00:54:24;10.82;;;5.28;;
35689;SDS011;26977;44.830;-0.674;2022-10-16T00:56:52;11.38;;;5.38;;
35689;SDS011;26977;44.830;-0.674;2022-10-16T00:59:20;8.50;;;5.40;;
35689;SDS011;26977;44.830;-0.674;2022-10-16T01:01:50;10.63;;;5.80;;
35689;SDS011;26977;44.830;-0.674;2022-10-16T01:04:17;15.43;;;5.43;;
35689;SDS011;26977;44.830;-0.674;2022-10-16T01:09:21;9.45;;;5.68;;
35689;SDS011;26977;44.830;-0.674;2022-10-16T01:14:37;7.72;;;4.97;;
35689;SDS011;26977;44.830;-0.674;2022-10-16T01:17:38;10.57;;;5.18;;
35689;SDS011;26977;44.830;-0.674;2022-10-16T01:25:30;8.90;;;5.18;;
35689;SDS011;26977;44.830;-0.674;2022-10-16T01:28:15;12.48;;;5.43;;
35689;SDS011;26977;44.830;-0.674;2022-10-16T01:30:44;6.88;;;4.72;;
35689;SDS011;26977;44.830;-0.674;2022-10-16T01:33:15;9.82;;;5.60;;
35689;SDS011;26977;44.830;-0.674;2022-10-16T01:35:46;9.57;;;5.35;;
35689;SDS011;26977;44.830;-0.674;2022-10-16T01:38:36;12.80;;;6.50;;
35689;SDS011;26977;44.830;-0.674;2022-10-16T01:41:06;8.88;;;5.90;;
35689;SDS011;26977;44.830;-0.674;2022-10-16T01:43:36;15.18;;;5.85;;
35689;SDS011;26977;44.830;-0.674;2022-10-16T01:46:08;12.05;;;5.85;;
35689;SDS011;26977;44.830;-0.674;2022-10-16T01:48:37;10.38;;;5.72;;
35689;SDS011;26977;44.830;-0.674;2022-10-16T01:51:08;9.27;;;5.32;;
35689;SDS011;26977;44.830;-0.674;2022-10-16T01:53:37;9.05;;;5.30;;
35689;SDS011;26977;44.830;-0.674;2022-10-16T01:56:08;7.80;;;5.35;;
35689;SDS011;26977;44.830;-0.674;2022-10-16T01:58:42;11.30;;;5.35;;
35689;SDS011;26977;44.830;-0.674;2022-10-16T02:01:12;10.82;;;5.68;;
35689;SDS011;26977;44.830;-0.674;2022-10-16T02:03:41;9.90;;;6.00;;
35689;SDS011;26977;44.830;-0.674;2022-10-16T02:06:09;10.57;;;6.05;;
35689;SDS011;26977;44.830;-0.674;2022-10-16T02:08:36;15.82;;;6.00;;
35689;SDS011;26977;44.830;-0.674;2022-10-16T02:11:04;10.45;;;5.80;;
35689;SDS011;26977;44.830;-0.674;2022-10-16T02:13:34;9.15;;;6.22;;
35689;SDS011;26977;44.830;-0.674;2022-10-16T02:16:10;10.23;;;5.90;;
35689;SDS011;26977;44.830;-0.674;2022-10-16T02:18:37;9.73;;;5.10;;
35689;SDS011;26977;44.830;-0.674;2022-10-16T02:21:13;10.35;;;6.10;;
35689;SDS011;26977;44.830;-0.674;2022-10-16T02:26:43;12.13;;;6.45;;
35689;SDS011;26977;44.830;-0.674;2022-10-16T02:29:16;11.25;;;6.00;;
35689;SDS011;26977;44.830;-0.674;2022-10-16T02:31:45;12.73;;;6.97;;
35689;SDS011;26977;44.830;-0.674;2022-10-16T02:34:14;10.80;;;6.20;;
35689;SDS011;26977;44.830;-0.674;2022-10-16T02:36:41;8.23;;;5.72;;
35689;SDS011;26977;44.830;-0.674;2022-10-16T02:39:08;13.02;;;6.00;;
35689;SDS011;26977;44.830;-0.674;2022-10-16T02:41:34;9.57;;;6.72;;
35689;SDS011;26977;44.830;-0.674;2022-10-16T02:44:00;9.75;;;6.22;;
35689;SDS011;26977;44.830;-0.674;2022-10-16T02:46:26;11.57;;;6.10;;
35689;SDS011;26977;44.830;-0.674;2022-10-16T02:48:51;11.65;;;6.10;;
35689;SDS011;26977;44.830;-0.674;2022-10-16T02:51:17;8.95;;;6.55;;
35689;SDS011;26977;44.830;-0.674;2022-10-16T02:53:43;11.90;;;6.68;;
35689;SDS011;26977;44.830;-0.674;2022-10-16T02:56:08;12.27;;;7.95;;
35689;SDS011;26977;44.830;-0.674;2022-10-16T02:58:34;9.52;;;6.72;;
35689;SDS011;26977;44.830;-0.674;2022-10-16T03:01:00;13.30;;;7.03;;
35689;SDS011;26977;44.830;-0.674;2022-10-16T03:03:25;10.25;;;7.38;;
35689;SDS011;26977;44.830;-0.674;2022-10-16T03:05:51;11.40;;;6.78;;
35689;SDS011;26977;44.830;-0.674;2022-10-16T03:08:16;9.52;;;6.65;;
35689;SDS011;26977;44.830;-0.674;2022-10-16T03:10:48;10.05;;;6.45;;
35689;SDS011;26977;44.830;-0.674;2022-10-16T03:13:17;11.45;;;7.00;;
35689;SDS011;26977;44.830;-0.674;2022-10-16T03:15:45;9.77;;;6.78;;
35689;SDS011;26977;44.830;-0.674;2022-10-16T03:18:11;11.80;;;6.85;;
35689;SDS011;26977;44.830;-0.674;2022-10-16T03:20:36;8.80;;;7.10;;
35689;SDS011;26977;44.830;-0.674;2022-10-16T03:23:03;10.27;;;6.95;;
35689;SDS011;26977;44.830;-0.674;2022-10-16T03:25:29;9.27;;;6.53;;
35689;SDS011;26977;44.830;-0.674;2022-10-16T03:27:54;10.38;;;6.40;;
35689;SDS011;26977;44.830;-0.674;2022-10-16T03:30:20;12.63;;;6.80;;
35689;SDS011;26977;44.830;-0.674;2022-10-16T03:32:46;8.07;;;6.22;;
35689;SDS011;26977;44.830;-0.674;2022-10-16T03:35:11;12.00;;;6.10;;
35689;SDS011;26977;44.830;-0.674;2022-10-16T03:37:37;10.63;;;6.57;;
35689;SDS011;26977;44.830;-0.674;2022-10-16T03:40:03;13.18;;;6.60;;
35689;SDS011;26977;44.830;-0.674;2022-10-16T03:42:29;9.80;;;6.63;;
35689;SDS011;26977;44.830;-0.674;2022-10-16T03:44:55;9.88;;;6.75;;
35689;SDS011;26977;44.830;-0.674;2022-10-16T03:47:21;9.80;;;6.90;;
35689;SDS011;26977;44.830;-0.674;2022-10-16T03:49:48;9.48;;;6.80;;
35689;SDS011;26977;44.830;-0.674;2022-10-16T03:52:15;8.40;;;6.32;;
35689;SDS011;26977;44.830;-0.674;2022-10-16T03:54:41;13.43;;;7.30;;
35689;SDS011;26977;44.830;-0.674;2022-10-16T03:57:06;12.15;;;8.55;;
35689;SDS011;26977;44.830;-0.674;2022-10-16T03:59:32;16.70;;;8.95;;
35689;SDS011;26977;44.830;-0.674;2022-10-16T04:01:57;10.95;;;7.28;;
35689;SDS011;26977;44.830;-0.674;2022-10-16T04:04:23;14.45;;;8.00;;
35689;SDS011;26977;44.830;-0.674;2022-10-16T04:06:49;16.80;;;9.23;;
35689;SDS011;26977;44.830;-0.674;2022-10-16T04:09:16;16.08;;;9.18;;
35689;SDS011;26977;44.830;-0.674;2022-10-16T04:11:41;12.15;;;8.05;;
35689;SDS011;26977;44.830;-0.674;2022-10-16T04:14:07;14.63;;;9.57;;
35689;SDS011;26977;44.830;-0.674;2022-10-16T04:16:33;16.75;;;9.82;;
35689;SDS011;26977;44.830;-0.674;2022-10-16T04:18:59;15.30;;;9.73;;
35689;SDS011;26977;44.830;-0.674;2022-10-16T04:21:24;14.50;;;9.73;;
35689;SDS011;26977;44.830;-0.674;2022-10-16T04:23:50;15.55;;;9.82;;
35689;SDS011;26977;44.830;-0.674;2022-10-16T04:26:16;16.17;;;10.82;;
35689;SDS011;26977;44.830;-0.674;2022-10-16T04:28:41;16.65;;;10.10;;
35689;SDS011;26977;44.830;-0.674;2022-10-16T04:31:08;14.45;;;11.02;;
35689;SDS011;26977;44.830;-0.674;2022-10-16T04:33:33;21.92;;;11.27;;
35689;SDS011;26977;44.830;-0.674;2022-10-16T04:35:59;17.33;;;10.85;;
35689;SDS011;26977;44.830;-0.674;2022-10-16T04:38:26;13.40;;;10.50;;
35689;SDS011;26977;44.830;-0.674;2022-10-16T04:40:52;16.55;;;10.52;;
35689;SDS011;26977;44.830;-0.674;2022-10-16T04:43:18;21.63;;;10.38;;
35689;SDS011;26977;44.830;-0.674;2022-10-16T04:45:44;12.75;;;9.43;;
35689;SDS011;26977;44.830;-0.674;2022-10-16T04:48:10;14.77;;;10.20;;
35689;SDS011;26977;44.830;-0.674;2022-10-16T04:50:36;14.88;;;9.65;;
35689;SDS011;26977;44.830;-0.674;2022-10-16T04:53:01;13.43;;;9.73;;
35689;SDS011;26977;44.830;-0.674;2022-10-16T04:55:27;14.75;;;9.75;;
35689;SDS011;26977;44.830;-0.674;2022-10-16T04:57:53;13.93;;;9.50;;
35689;SDS011;26977;44.830;-0.674;2022-10-16T05:00:18;12.48;;;9.68;;
35689;SDS011;26977;44.830;-0.674;2022-10-16T05:02:44;15.57;;;10.10;;
35689;SDS011;26977;44.830;-0.674;2022-10-16T05:05:10;17.08;;;10.18;;
35689;SDS011;26977;44.830;-0.674;2022-10-16T05:07:36;18.13;;;10.63;;
35689;SDS011;26977;44.830;-0.674;2022-10-16T05:10:02;16.00;;;10.48;;
35689;SDS011;26977;44.830;-0.674;2022-10-16T05:12:28;13.63;;;10.27;;
35689;SDS011;26977;44.830;-0.674;2022-10-16T05:14:54;15.23;;;10.80;;
35689;SDS011;26977;44.830;-0.674;2022-10-16T05:17:23;18.67;;;11.30;;
35689;SDS011;26977;44.830;-0.674;2022-10-16T05:19:50;17.45;;;11.00;;
35689;SDS011;26977;44.830;-0.674;2022-10-16T05:22:15;14.45;;;10.93;;
35689;SDS011;26977;44.830;-0.674;2022-10-16T05:24:41;16.05;;;10.43;;
35689;SDS011;26977;44.830;-0.674;2022-10-16T05:27:07;14.88;;;10.80;;
35689;SDS011;26977;44.830;-0.674;2022-10-16T05:29:32;15.18;;;11.48;;
35689;SDS011;26977;44.830;-0.674;2022-10-16T05:31:58;17.40;;;11.38;;
35689;SDS011;26977;44.830;-0.674;2022-10-16T05:34:24;23.13;;;11.45;;
35689;SDS011;26977;44.830;-0.674;2022-10-16T05:36:49;15.07;;;11.32;;
35689;SDS011;26977;44.830;-0.674;2022-10-16T05:39:15;16.15;;;11.45;;
35689;SDS011;26977;44.830;-0.674;2022-10-16T05:41:41;16.02;;;11.13;;
35689;SDS011;26977;44.830;-0.674;2022-10-16T05:44:08;22.85;;;12.27;;
35689;SDS011;26977;44.830;-0.674;2022-10-16T05:46:34;16.80;;;10.77;;
35689;SDS011;26977;44.830;-0.674;2022-10-16T05:48:59;16.95;;;11.43;;
35689;SDS011;26977;44.830;-0.674;2022-10-16T05:51:25;18.73;;;12.65;;
35689;SDS011;26977;44.830;-0.674;2022-10-16T05:53:51;18.27;;;11.73;;
35689;SDS011;26977;44.830;-0.674;2022-10-16T05:56:17;21.83;;;12.80;;
35689;SDS011;26977;44.830;-0.674;2022-10-16T05:58:43;15.10;;;11.77;;
35689;SDS011;26977;44.830;-0.674;2022-10-16T06:01:13;20.65;;;14.32;;
35689;SDS011;26977;44.830;-0.674;2022-10-16T06:03:40;24.02;;;15.02;;
35689;SDS011;26977;44.830;-0.674;2022-10-16T06:06:07;20.45;;;13.68;;
35689;SDS011;26977;44.830;-0.674;2022-10-16T06:08:34;17.13;;;12.48;;
35689;SDS011;26977;44.830;-0.674;2022-10-16T06:11:04;22.90;;;13.82;;
35689;SDS011;26977;44.830;-0.674;2022-10-16T06:13:31;19.48;;;14.10;;
35689;SDS011;26977;44.830;-0.674;2022-10-16T06:15:58;22.45;;;15.23;;
35689;SDS011;26977;44.830;-0.674;2022-10-16T06:18:34;20.58;;;13.75;;
35689;SDS011;26977;44.830;-0.674;2022-10-16T06:21:06;20.80;;;14.57;;
35689;SDS011;26977;44.830;-0.674;2022-10-16T06:23:37;24.80;;;15.23;;
35689;SDS011;26977;44.830;-0.674;2022-10-16T06:26:10;23.73;;;15.60;;
35689;SDS011;26977;44.830;-0.674;2022-10-16T06:28:40;22.88;;;15.60;;
35689;SDS011;26977;44.830;-0.674;2022-10-16T06:31:06;28.15;;;16.88;;
35689;SDS011;26977;44.830;-0.674;2022-10-16T06:33:33;22.48;;;15.80;;
35689;SDS011;26977;44.830;-0.674;2022-10-16T06:38:28;23.38;;;16.25;;
35689;SDS011;26977;44.830;-0.674;2022-10-16T06:40:54;23.67;;;17.00;;
35689;SDS011;26977;44.830;-0.674;2022-10-16T06:43:20;24.90;;;16.83;;
35689;SDS011;26977;44.830;-0.674;2022-10-16T06:45:52;23.48;;;15.60;;
35689;SDS011;26977;44.830;-0.674;2022-10-16T06:48:18;25.05;;;17.10;;
35689;SDS011;26977;44.830;-0.674;2022-10-16T06:50:54;25.90;;;16.17;;
35689;SDS011;26977;44.830;-0.674;2022-10-16T06:53:47;26.30;;;17.58;;
35689;SDS011;26977;44.830;-0.674;2022-10-16T06:56:19;26.50;;;18.98;;
35689;SDS011;26977;44.830;-0.674;2022-10-16T06:58:46;29.75;;;18.95;;
35689;SDS011;26977;44.830;-0.674;2022-10-16T07:01:13;27.30;;;19.52;;
35689;SDS011;26977;44.830;-0.674;2022-10-16T07:03:40;35.72;;;20.38;;
35689;SDS011;26977;44.830;-0.674;2022-10-16T07:06:08;29.67;;;21.83;;
35689;SDS011;26977;44.830;-0.674;2022-10-16T07:08:36;32.45;;;21.85;;
35689;SDS011;26977;44.830;-0.674;2022-10-16T07:11:10;34.10;;;21.30;;
35689;SDS011;26977;44.830;-0.674;2022-10-16T07:13:38;32.88;;;22.90;;
35689;SDS011;26977;44.830;-0.674;2022-10-16T07:16:15;37.25;;;23.20;;
35689;SDS011;26977;44.830;-0.674;2022-10-16T07:18:42;39.53;;;24.30;;
35689;SDS011;26977;44.830;-0.674;2022-10-16T07:21:14;34.35;;;22.48;;
35689;SDS011;26977;44.830;-0.674;2022-10-16T07:23:42;34.53;;;22.85;;
35689;SDS011;26977;44.830;-0.674;2022-10-16T07:26:08;35.58;;;22.60;;
35689;SDS011;26977;44.830;-0.674;2022-10-16T07:28:35;36.53;;;22.30;;
35689;SDS011;26977;44.830;-0.674;2022-10-16T07:31:05;27.23;;;21.77;;
35689;SDS011;26977;44.830;-0.674;2022-10-16T07:33:33;29.00;;;21.02;;
35689;SDS011;26977;44.830;-0.674;2022-10-16T07:36:00;28.63;;;20.98;;
35689;SDS011;26977;44.830;-0.674;2022-10-16T07:38:26;30.35;;;20.83;;
35689;SDS011;26977;44.830;-0.674;2022-10-16T07:41:25;28.25;;;19.85;;
35689;SDS011;26977;44.830;-0.674;2022-10-16T07:43:47;28.65;;;18.60;;
35689;SDS011;26977;44.830;-0.674;2022-10-16T07:46:17;26.17;;;18.02;;
35689;SDS011;26977;44.830;-0.674;2022-10-16T07:48:44;25.80;;;18.45;;
35689;SDS011;26977;44.830;-0.674;2022-10-16T07:51:12;22.33;;;16.75;;
35689;SDS011;26977;44.830;-0.674;2022-10-16T07:53:46;20.33;;;15.60;;
35689;SDS011;26977;44.830;-0.674;2022-10-16T07:56:12;20.55;;;14.65;;
35689;SDS011;26977;44.830;-0.674;2022-10-16T07:58:39;18.55;;;14.50;;
35689;SDS011;26977;44.830;-0.674;2022-10-16T08:01:07;18.65;;;13.63;;
35689;SDS011;26977;44.830;-0.674;2022-10-16T08:03:38;17.08;;;12.80;;
35689;SDS011;26977;44.830;-0.674;2022-10-16T08:06:06;20.35;;;12.77;;
35689;SDS011;26977;44.830;-0.674;2022-10-16T08:08:32;14.55;;;12.00;;
35689;SDS011;26977;44.830;-0.674;2022-10-16T08:10:58;17.00;;;11.63;;
35689;SDS011;26977;44.830;-0.674;2022-10-16T08:13:23;19.98;;;11.07;;
35689;SDS011;26977;44.830;-0.674;2022-10-16T08:15:49;12.13;;;10.57;;
35689;SDS011;26977;44.830;-0.674;2022-10-16T08:18:15;15.57;;;9.95;;
35689;SDS011;26977;44.830;-0.674;2022-10-16T08:20:41;15.57;;;10.60;;
35689;SDS011;26977;44.830;-0.674;2022-10-16T08:23:08;17.95;;;9.85;;
35689;SDS011;26977;44.830;-0.674;2022-10-16T08:25:36;10.57;;;9.48;;
35689;SDS011;26977;44.830;-0.674;2022-10-16T08:28:12;10.90;;;9.80;;
35689;SDS011;26977;44.830;-0.674;2022-10-16T08:30:38;14.93;;;9.50;;
35689;SDS011;26977;44.830;-0.674;2022-10-16T08:33:04;13.48;;;8.77;;
35689;SDS011;26977;44.830;-0.674;2022-10-16T08:35:31;13.00;;;9.05;;
35689;SDS011;26977;44.830;-0.674;2022-10-16T08:37:57;13.80;;;8.68;;
35689;SDS011;26977;44.830;-0.674;2022-10-16T08:40:24;9.70;;;7.82;;
35689;SDS011;26977;44.830;-0.674;2022-10-16T08:43:08;9.55;;;7.55;;
35689;SDS011;26977;44.830;-0.674;2022-10-16T08:48:35;9.77;;;6.85;;
35689;SDS011;26977;44.830;-0.674;2022-10-16T08:51:10;9.73;;;6.85;;
35689;SDS011;26977;44.830;-0.674;2022-10-16T08:53:45;10.45;;;6.82;;
35689;SDS011;26977;44.830;-0.674;2022-10-16T08:56:11;8.35;;;6.13;;
35689;SDS011;26977;44.830;-0.674;2022-10-16T08:58:37;9.10;;;6.07;;
35689;SDS011;26977;44.830;-0.674;2022-10-16T09:01:03;8.60;;;6.45;;
35689;SDS011;26977;44.830;-0.674;2022-10-16T09:06:24;7.05;;;6.20;;
35689;SDS011;26977;44.830;-0.674;2022-10-16T09:19:53;6.63;;;5.05;;
35689;SDS011;26977;44.830;-0.674;2022-10-16T09:22:41;9.65;;;5.28;;
35689;SDS011;26977;44.830;-0.674;2022-10-16T09:25:17;9.90;;;4.90;;
35689;SDS011;26977;44.830;-0.674;2022-10-16T09:27:47;7.18;;;5.30;;
35689;SDS011;26977;44.830;-0.674;2022-10-16T09:30:17;8.05;;;5.13;;
35689;SDS011;26977;44.830;-0.674;2022-10-16T09:32:45;10.45;;;4.80;;
35689;SDS011;26977;44.830;-0.674;2022-10-16T09:35:19;7.80;;;4.75;;
35689;SDS011;26977;44.830;-0.674;2022-10-16T09:37:51;9.30;;;5.10;;
35689;SDS011;26977;44.830;-0.674;2022-10-16T09:40:30;5.72;;;4.53;;
35689;SDS011;26977;44.830;-0.674;2022-10-16T09:43:46;6.55;;;4.50;;
35689;SDS011;26977;44.830;-0.674;2022-10-16T09:48:20;4.80;;;4.32;;
35689;SDS011;26977;44.830;-0.674;2022-10-16T09:50:55;7.43;;;4.55;;
35689;SDS011;26977;44.830;-0.674;2022-10-16T09:53:22;5.68;;;4.22;;
35689;SDS011;26977;44.830;-0.674;2022-10-16T09:55:48;8.48;;;4.28;;
35689;SDS011;26977;44.830;-0.674;2022-10-16T09:58:20;7.25;;;4.35;;
35689;SDS011;26977;44.830;-0.674;2022-10-16T10:00:53;8.30;;;4.20;;
35689;SDS011;26977;44.830;-0.674;2022-10-16T10:03:33;6.57;;;4.25;;
35689;SDS011;26977;44.830;-0.674;2022-10-16T10:06:06;10.02;;;4.45;;
35689;SDS011;26977;44.830;-0.674;2022-10-16T10:08:55;9.50;;;4.43;;
35689;SDS011;26977;44.830;-0.674;2022-10-16T10:11:40;6.70;;;4.30;;
35689;SDS011;26977;44.830;-0.674;2022-10-16T10:14:12;9.00;;;4.53;;
35689;SDS011;26977;44.830;-0.674;2022-10-16T10:19:41;10.57;;;4.05;;
35689;SDS011;26977;44.830;-0.674;2022-10-16T10:22:17;8.60;;;4.55;;
35689;SDS011;26977;44.830;-0.674;2022-10-16T10:24:55;4.55;;;3.97;;
35689;SDS011;26977;44.830;-0.674;2022-10-16T10:27:20;4.57;;;3.92;;
35689;SDS011;26977;44.830;-0.674;2022-10-16T10:30:27;7.20;;;3.90;;
35689;SDS011;26977;44.830;-0.674;2022-10-16T10:33:06;5.60;;;3.95;;
35689;SDS011;26977;44.830;-0.674;2022-10-16T10:46:34;7.22;;;3.95;;
35689;SDS011;26977;44.830;-0.674;2022-10-16T10:58:05;7.18;;;4.07;;
35689;SDS011;26977;44.830;-0.674;2022-10-16T11:06:36;6.05;;;3.38;;
35689;SDS011;26977;44.830;-0.674;2022-10-16T11:11:42;9.30;;;3.65;;
35689;SDS011;26977;44.830;-0.674;2022-10-16T11:16:44;5.50;;;3.72;;
35689;SDS011;26977;44.830;-0.674;2022-10-16T11:22:01;3.60;;;3.30;;
35689;SDS011;26977;44.830;-0.674;2022-10-16T11:27:49;6.25;;;3.42;;
35689;SDS011;26977;44.830;-0.674;2022-10-16T11:30:28;5.55;;;3.20;;
35689;SDS011;26977;44.830;-0.674;2022-10-16T11:33:00;5.47;;;3.33;;
35689;SDS011;26977;44.830;-0.674;2022-10-16T11:41:00;4.60;;;3.40;;
35689;SDS011;26977;44.830;-0.674;2022-10-16T11:43:34;7.00;;;3.13;;
35689;SDS011;26977;44.830;-0.674;2022-10-16T11:46:21;8.65;;;3.15;;
35689;SDS011;26977;44.830;-0.674;2022-10-16T11:48:59;4.72;;;3.05;;
35689;SDS011;26977;44.830;-0.674;2022-10-16T11:51:42;8.88;;;3.45;;
35689;SDS011;26977;44.830;-0.674;2022-10-16T11:57:13;8.18;;;3.22;;
35689;SDS011;26977;44.830;-0.674;2022-10-16T11:59:51;3.85;;;2.88;;
35689;SDS011;26977;44.830;-0.674;2022-10-16T12:02:35;6.28;;;3.58;;
35689;SDS011;26977;44.830;-0.674;2022-10-16T12:08:19;9.43;;;3.03;;
35689;SDS011;26977;44.830;-0.674;2022-10-16T12:10:46;5.63;;;2.83;;
35689;SDS011;26977;44.830;-0.674;2022-10-16T12:16:05;10.52;;;2.75;;
35689;SDS011;26977;44.830;-0.674;2022-10-16T12:18:37;5.13;;;2.55;;
35689;SDS011;26977;44.830;-0.674;2022-10-16T12:21:04;6.85;;;2.58;;
35689;SDS011;26977;44.830;-0.674;2022-10-16T12:23:32;5.30;;;2.42;;
35689;SDS011;26977;44.830;-0.674;2022-10-16T12:26:02;11.65;;;2.80;;
35689;SDS011;26977;44.830;-0.674;2022-10-16T12:28:30;5.18;;;2.33;;
35689;SDS011;26977;44.830;-0.674;2022-10-16T12:31:04;3.97;;;2.28;;
35689;SDS011;26977;44.830;-0.674;2022-10-16T12:33:36;4.57;;;1.90;;
35689;SDS011;26977;44.830;-0.674;2022-10-16T12:36:12;5.95;;;2.28;;
35689;SDS011;26977;44.830;-0.674;2022-10-16T12:38:48;4.80;;;2.20;;
35689;SDS011;26977;44.830;-0.674;2022-10-16T12:41:34;6.47;;;2.05;;
35689;SDS011;26977;44.830;-0.674;2022-10-16T12:44:04;5.10;;;2.22;;
35689;SDS011;26977;44.830;-0.674;2022-10-16T12:49:32;4.35;;;2.10;;
35689;SDS011;26977;44.830;-0.674;2022-10-16T12:52:03;5.63;;;1.75;;
35689;SDS011;26977;44.830;-0.674;2022-10-16T13:06:01;3.53;;;2.13;;
35689;SDS011;26977;44.830;-0.674;2022-10-16T13:11:52;5.35;;;2.22;;
35689;SDS011;26977;44.830;-0.674;2022-10-16T13:28:19;6.40;;;2.35;;
35689;SDS011;26977;44.830;-0.674;2022-10-16T13:30:51;5.93;;;2.08;;
35689;SDS011;26977;44.830;-0.674;2022-10-16T13:33:32;4.15;;;2.10;;
35689;SDS011;26977;44.830;-0.674;2022-10-16T13:36:04;5.10;;;2.10;;
35689;SDS011;26977;44.830;-0.674;2022-10-16T13:38:32;5.07;;;2.13;;
35689;SDS011;26977;44.830;-0.674;2022-10-16T13:41:01;3.63;;;2.00;;
35689;SDS011;26977;44.830;-0.674;2022-10-16T13:43:32;5.03;;;1.75;;
35689;SDS011;26977;44.830;-0.674;2022-10-16T13:46:01;3.33;;;2.05;;
35689;SDS011;26977;44.830;-0.674;2022-10-16T13:48:32;5.45;;;2.70;;
35689;SDS011;26977;44.830;-0.674;2022-10-16T13:50:59;11.98;;;3.08;;
35689;SDS011;26977;44.830;-0.674;2022-10-16T13:53:51;7.30;;;2.40;;
35689;SDS011;26977;44.830;-0.674;2022-10-16T13:56:18;4.93;;;2.15;;
35689;SDS011;26977;44.830;-0.674;2022-10-16T13:58:46;7.97;;;2.50;;
35689;SDS011;26977;44.830;-0.674;2022-10-16T14:01:23;5.68;;;2.10;;
35689;SDS011;26977;44.830;-0.674;2022-10-16T14:03:52;8.65;;;2.28;;
35689;SDS011;26977;44.830;-0.674;2022-10-16T14:06:25;6.55;;;2.20;;
35689;SDS011;26977;44.830;-0.674;2022-10-16T14:08:56;4.10;;;2.10;;
35689;SDS011;26977;44.830;-0.674;2022-10-16T14:11:44;6.63;;;1.75;;
35689;SDS011;26977;44.830;-0.674;2022-10-16T14:14:13;4.28;;;2.03;;
35689;SDS011;26977;44.830;-0.674;2022-10-16T14:16:43;5.43;;;2.03;;
35689;SDS011;26977;44.830;-0.674;2022-10-16T14:19:21;3.42;;;1.77;;
35689;SDS011;26977;44.830;-0.674;2022-10-16T14:21:51;3.75;;;2.00;;
35689;SDS011;26977;44.830;-0.674;2022-10-16T14:24:27;4.32;;;1.77;;
35689;SDS011;26977;44.830;-0.674;2022-10-16T14:26:56;2.85;;;1.48;;
35689;SDS011;26977;44.830;-0.674;2022-10-16T14:29:23;4.75;;;1.90;;
35689;SDS011;26977;44.830;-0.674;2022-10-16T14:32:03;5.45;;;1.77;;
35689;SDS011;26977;44.830;-0.674;2022-10-16T14:34:31;6.00;;;1.88;;
35689;SDS011;26977;44.830;-0.674;2022-10-16T14:37:14;6.90;;;1.55;;
35689;SDS011;26977;44.830;-0.674;2022-10-16T14:39:50;8.98;;;1.73;;
35689;SDS011;26977;44.830;-0.674;2022-10-16T14:42:16;7.35;;;1.98;;
35689;SDS011;26977;44.830;-0.674;2022-10-16T14:44:44;3.88;;;1.70;;
35689;SDS011;26977;44.830;-0.674;2022-10-16T14:47:16;7.00;;;2.13;;
35689;SDS011;26977;44.830;-0.674;2022-10-16T14:49:47;6.15;;;1.70;;
35689;SDS011;26977;44.830;-0.674;2022-10-16T14:52:14;8.43;;;2.03;;
35689;SDS011;26977;44.830;-0.674;2022-10-16T14:54:40;4.25;;;2.00;;
35689;SDS011;26977;44.830;-0.674;2022-10-16T14:57:05;5.75;;;2.00;;
35689;SDS011;26977;44.830;-0.674;2022-10-16T14:59:45;6.28;;;2.05;;
35689;SDS011;26977;44.830;-0.674;2022-10-16T15:02:20;4.68;;;2.00;;
35689;SDS011;26977;44.830;-0.674;2022-10-16T15:04:53;5.93;;;2.28;;
35689;SDS011;26977;44.830;-0.674;2022-10-16T15:07:20;4.43;;;1.92;;
35689;SDS011;26977;44.830;-0.674;2022-10-16T15:09:45;4.75;;;2.13;;
35689;SDS011;26977;44.830;-0.674;2022-10-16T15:12:12;3.33;;;2.00;;
35689;SDS011;26977;44.830;-0.674;2022-10-16T15:14:37;5.13;;;2.33;;
35689;SDS011;26977;44.830;-0.674;2022-10-16T15:17:03;5.18;;;2.28;;
35689;SDS011;26977;44.830;-0.674;2022-10-16T15:19:29;4.28;;;2.13;;
35689;SDS011;26977;44.830;-0.674;2022-10-16T15:21:55;5.95;;;2.60;;
35689;SDS011;26977;44.830;-0.674;2022-10-16T15:24:21;4.65;;;2.60;;
35689;SDS011;26977;44.830;-0.674;2022-10-16T15:26:47;7.63;;;2.63;;
35689;SDS011;26977;44.830;-0.674;2022-10-16T15:29:13;4.07;;;2.22;;
35689;SDS011;26977;44.830;-0.674;2022-10-16T15:31:39;4.90;;;2.50;;
35689;SDS011;26977;44.830;-0.674;2022-10-16T15:34:08;4.55;;;2.42;;
35689;SDS011;26977;44.830;-0.674;2022-10-16T15:36:35;4.25;;;2.30;;
35689;SDS011;26977;44.830;-0.674;2022-10-16T15:39:08;4.15;;;2.33;;
35689;SDS011;26977;44.830;-0.674;2022-10-16T15:41:38;3.83;;;2.38;;
35689;SDS011;26977;44.830;-0.674;2022-10-16T15:44:04;5.45;;;2.40;;
35689;SDS011;26977;44.830;-0.674;2022-10-16T15:46:30;8.05;;;2.05;;
35689;SDS011;26977;44.830;-0.674;2022-10-16T15:48:56;3.40;;;2.03;;
35689;SDS011;26977;44.830;-0.674;2022-10-16T15:51:23;5.90;;;2.30;;
35689;SDS011;26977;44.830;-0.674;2022-10-16T15:53:53;3.00;;;2.00;;
35689;SDS011;26977;44.830;-0.674;2022-10-16T15:56:21;5.63;;;2.15;;
35689;SDS011;26977;44.830;-0.674;2022-10-16T15:58:48;4.53;;;2.20;;
35689;SDS011;26977;44.830;-0.674;2022-10-16T16:01:13;4.28;;;2.15;;
35689;SDS011;26977;44.830;-0.674;2022-10-16T16:03:39;3.78;;;2.10;;
35689;SDS011;26977;44.830;-0.674;2022-10-16T16:06:06;3.13;;;2.13;;
35689;SDS011;26977;44.830;-0.674;2022-10-16T16:08:36;4.35;;;2.25;;
35689;SDS011;26977;44.830;-0.674;2022-10-16T16:11:10;5.03;;;2.15;;
35689;SDS011;26977;44.830;-0.674;2022-10-16T16:13:37;3.58;;;1.88;;
35689;SDS011;26977;44.830;-0.674;2022-10-16T16:16:09;6.60;;;2.22;;
35689;SDS011;26977;44.830;-0.674;2022-10-16T16:18:37;3.33;;;1.85;;
35689;SDS011;26977;44.830;-0.674;2022-10-16T16:21:03;4.15;;;2.05;;
35689;SDS011;26977;44.830;-0.674;2022-10-16T16:23:29;4.20;;;2.08;;
35689;SDS011;26977;44.830;-0.674;2022-10-16T16:28:36;2.80;;;1.88;;
35689;SDS011;26977;44.830;-0.674;2022-10-16T16:31:02;4.15;;;2.10;;
35689;SDS011;26977;44.830;-0.674;2022-10-16T16:33:28;3.15;;;2.13;;
35689;SDS011;26977;44.830;-0.674;2022-10-16T16:35:56;2.97;;;1.83;;
35689;SDS011;26977;44.830;-0.674;2022-10-16T16:38:31;3.03;;;1.92;;
35689;SDS011;26977;44.830;-0.674;2022-10-16T16:40:57;3.53;;;2.60;;
35689;SDS011;26977;44.830;-0.674;2022-10-16T16:43:24;5.95;;;2.47;;
35689;SDS011;26977;44.830;-0.674;2022-10-16T16:45:50;6.10;;;2.78;;
35689;SDS011;26977;44.830;-0.674;2022-10-16T16:48:16;4.68;;;2.40;;
35689;SDS011;26977;44.830;-0.674;2022-10-16T16:50:42;5.63;;;2.00;;